createdAt,value
2023-02-26T00:00:21.427Z,94.00
2023-02-26T00:03:09.225Z,94.10
2023-02-26T00:06:02.578Z,94.10
2023-02-26T00:08:51.034Z,94.20
2023-02-26T00:11:41.171Z,94.10
2023-02-26T00:14:29.747Z,94.10
2023-02-26T00:17:31.750Z,94.20
2023-02-26T00:20:20.187Z,94.10
2023-02-26T00:23:08.458Z,94.10
2023-02-26T00:25:56.478Z,94.10
2023-02-26T00:28:46.475Z,94.20
2023-02-26T00:31:35.506Z,94.20
2023-02-26T00:34:23.982Z,94.20
2023-02-26T00:37:22.605Z,94.50
2023-02-26T00:40:22.022Z,94.60
2023-02-26T00:43:16.139Z,94.30
2023-02-26T00:46:17.460Z,94.20
2023-02-26T00:49:13.629Z,94.20
2023-02-26T00:52:06.635Z,94.20
2023-02-26T00:54:54.482Z,94.20
2023-02-26T00:57:42.348Z,94.20
2023-02-26T01:00:30.241Z,94.30
2023-02-26T01:03:19.722Z,94.20
2023-02-26T01:06:12.492Z,94.20
2023-02-26T01:09:07.007Z,94.20
2023-02-26T01:11:56.010Z,94.10
2023-02-26T01:14:44.176Z,94.10
2023-02-26T01:17:37.395Z,94.10
2023-02-26T01:20:29.096Z,94.10
2023-02-26T01:23:19.824Z,94.10
2023-02-26T01:26:14.198Z,94.50
2023-02-26T01:29:04.138Z,94.20
2023-02-26T01:31:56.597Z,94.10
2023-02-26T01:34:53.341Z,94.10
2023-02-26T01:37:50.666Z,94.10
2023-02-26T01:41:03.323Z,94.20
2023-02-26T01:43:50.885Z,94.10
2023-02-26T01:46:47.711Z,94.10
2023-02-26T01:49:36.082Z,94.20
2023-02-26T01:52:53.693Z,94.30
2023-02-26T01:55:44.734Z,94.20
2023-02-26T01:58:37.574Z,94.10
2023-02-26T02:01:25.513Z,94.10
2023-02-26T02:04:16.864Z,94.00
2023-02-26T02:07:05.272Z,94.10
2023-02-26T02:09:54.349Z,94.10
2023-02-26T02:12:49.953Z,94.00
2023-02-26T02:15:43.942Z,94.10
2023-02-26T02:18:40.978Z,94.00
2023-02-26T02:21:55.610Z,94.00
2023-02-26T02:25:00.026Z,93.90
2023-02-26T02:27:56.356Z,93.90
2023-02-26T02:30:58.424Z,93.80
2023-02-26T02:33:52.499Z,93.80
2023-02-26T02:36:46.444Z,93.90
2023-02-26T02:39:38.862Z,93.90
2023-02-26T02:42:32.511Z,93.90
2023-02-26T02:45:24.375Z,93.90
2023-02-26T02:48:19.453Z,93.80
2023-02-26T02:51:13.766Z,94.00
2023-02-26T02:54:08.528Z,93.80
2023-02-26T02:57:01.762Z,93.80
2023-02-26T02:59:53.414Z,93.80
2023-02-26T03:02:49.627Z,93.80
2023-02-26T03:05:38.950Z,93.80
2023-02-26T03:08:31.528Z,93.80
2023-02-26T03:11:19.218Z,93.80
2023-02-26T03:14:11.027Z,93.70
2023-02-26T03:17:09.963Z,93.80
2023-02-26T03:20:10.904Z,94.10
2023-02-26T03:23:10.967Z,93.60
2023-02-26T03:26:02.761Z,93.60
2023-02-26T03:28:58.043Z,93.60
2023-02-26T03:31:54.511Z,93.50
2023-02-26T03:34:47.601Z,93.50
2023-02-26T03:37:40.208Z,93.50
2023-02-26T03:40:34.343Z,93.40
2023-02-26T03:43:29.000Z,93.40
2023-02-26T03:46:23.669Z,93.50
2023-02-26T03:49:16.154Z,93.50
2023-02-26T03:52:05.843Z,93.40
2023-02-26T03:55:09.712Z,93.40
2023-02-26T03:58:19.012Z,93.40
2023-02-26T04:01:29.906Z,93.40
2023-02-26T04:04:22.333Z,93.40
2023-02-26T04:07:10.980Z,93.40
2023-02-26T04:09:58.580Z,93.40
2023-02-26T04:12:49.364Z,93.30
2023-02-26T04:15:39.100Z,93.10
2023-02-26T04:18:26.566Z,93.10
2023-02-26T04:21:15.802Z,93.10
2023-02-26T04:24:04.482Z,93.10
2023-02-26T04:26:52.113Z,93.10
2023-02-26T04:29:40.030Z,93.10
2023-02-26T04:32:29.081Z,93.00
2023-02-26T04:35:16.801Z,93.10
2023-02-26T04:38:05.729Z,93.10
2023-02-26T04:40:53.886Z,93.10
2023-02-26T04:43:41.651Z,93.20
2023-02-26T04:46:48.845Z,93.20
2023-02-26T04:49:38.190Z,93.20
2023-02-26T04:52:26.405Z,93.20
2023-02-26T04:55:14.939Z,93.20
2023-02-26T04:58:02.678Z,93.20
2023-02-26T05:00:51.177Z,93.20
2023-02-26T05:03:39.381Z,93.00
2023-02-26T05:06:28.361Z,93.00
2023-02-26T05:09:16.048Z,93.00
2023-02-26T05:12:05.012Z,93.00
2023-02-26T05:14:52.797Z,93.00
2023-02-26T05:17:40.581Z,93.00
2023-02-26T05:20:28.768Z,93.00
2023-02-26T05:23:17.523Z,93.00
2023-02-26T05:26:05.193Z,93.00
2023-02-26T05:28:52.584Z,93.00
2023-02-26T05:31:40.531Z,93.00
2023-02-26T05:34:30.750Z,93.00
2023-02-26T05:37:18.689Z,93.00
2023-02-26T05:40:11.194Z,93.10
2023-02-26T05:42:58.870Z,93.10
2023-02-26T05:45:47.275Z,93.00
2023-02-26T05:48:35.252Z,93.00
2023-02-26T05:51:22.864Z,93.00
2023-02-26T05:54:10.571Z,93.00
2023-02-26T05:56:59.859Z,93.00
2023-02-26T05:59:47.380Z,93.00
2023-02-26T06:02:35.569Z,93.00
2023-02-26T06:05:23.128Z,93.10
2023-02-26T06:08:12.402Z,93.10
2023-02-26T06:11:00.150Z,93.20
2023-02-26T06:13:49.110Z,93.10
2023-02-26T06:16:37.128Z,93.10
2023-02-26T06:19:24.804Z,93.10
2023-02-26T06:22:12.379Z,93.10
2023-02-26T06:25:00.132Z,93.10
2023-02-26T06:27:47.608Z,93.20
2023-02-26T06:30:37.083Z,93.20
2023-02-26T06:33:25.040Z,93.40
2023-02-26T06:36:12.797Z,93.40
2023-02-26T06:39:00.626Z,93.40
2023-02-26T06:41:48.192Z,93.30
2023-02-26T06:44:35.614Z,93.30
2023-02-26T06:47:25.099Z,93.40
2023-02-26T06:50:13.455Z,93.10
2023-02-26T06:53:01.184Z,93.00
2023-02-26T06:55:51.625Z,93.00
2023-02-26T06:58:39.090Z,93.00
2023-02-26T07:01:27.571Z,93.00
2023-02-26T07:04:16.922Z,92.80
2023-02-26T07:07:05.466Z,92.80
2023-02-26T07:09:52.905Z,92.80
2023-02-26T07:12:40.669Z,92.80
2023-02-26T07:15:28.606Z,92.80
2023-02-26T07:18:16.112Z,92.70
2023-02-26T07:21:05.677Z,92.70
2023-02-26T07:23:53.452Z,92.70
2023-02-26T07:26:40.855Z,92.70
2023-02-26T07:29:28.525Z,92.60
2023-02-26T07:32:16.588Z,92.40
2023-02-26T07:35:04.715Z,92.70
2023-02-26T07:37:53.862Z,92.20
2023-02-26T07:40:41.478Z,92.10
2023-02-26T07:43:29.431Z,92.10
2023-02-26T07:46:17.492Z,92.00
2023-02-26T07:49:04.789Z,92.10
2023-02-26T07:51:52.878Z,92.00
2023-02-26T07:54:42.203Z,92.10
2023-02-26T07:57:29.391Z,92.00
2023-02-26T08:00:18.180Z,92.10
2023-02-26T08:03:06.329Z,91.90
2023-02-26T08:05:53.939Z,91.70
2023-02-26T08:08:41.479Z,91.80
2023-02-26T08:11:30.909Z,91.80
2023-02-26T08:14:18.868Z,91.80
2023-02-26T08:17:07.140Z,91.80
2023-02-26T08:19:55.095Z,91.80
2023-02-26T08:22:43.099Z,91.80
2023-02-26T08:25:31.136Z,92.10
2023-02-26T08:28:19.827Z,91.70
2023-02-26T08:31:07.904Z,91.60
2023-02-26T08:33:55.819Z,91.60
2023-02-26T08:36:43.745Z,91.60
2023-02-26T08:39:34.375Z,91.60
2023-02-26T08:42:22.196Z,91.70
2023-02-26T08:45:12.170Z,91.40
2023-02-26T08:47:59.671Z,91.50
2023-02-26T08:50:47.304Z,91.50
2023-02-26T08:53:35.083Z,91.50
2023-02-26T08:56:23.361Z,91.50
2023-02-26T08:59:13.491Z,91.50
2023-02-26T09:02:02.886Z,91.50
2023-02-26T09:04:50.734Z,91.40
2023-02-26T09:07:38.615Z,91.40
2023-02-26T09:10:26.424Z,91.40
2023-02-26T09:13:14.468Z,91.30
2023-02-26T09:16:04.705Z,91.20
2023-02-26T09:18:54.107Z,91.10
2023-02-26T09:21:41.835Z,91.20
2023-02-26T09:24:29.734Z,91.20
2023-02-26T09:27:17.169Z,91.20
2023-02-26T09:30:05.404Z,91.20
2023-02-26T09:32:52.982Z,91.00
2023-02-26T09:35:42.250Z,91.10
2023-02-26T09:38:30.446Z,91.10
2023-02-26T09:41:25.784Z,91.60
2023-02-26T09:44:20.124Z,91.40
2023-02-26T09:47:17.583Z,91.50
2023-02-26T09:50:11.975Z,91.40
2023-02-26T09:53:10.158Z,91.30
2023-02-26T09:56:06.237Z,91.40
2023-02-26T09:58:55.788Z,91.30
2023-02-26T10:01:50.134Z,91.30
2023-02-26T10:04:51.973Z,91.20
2023-02-26T10:07:46.501Z,91.60
2023-02-26T10:10:46.399Z,91.10
2023-02-26T10:13:56.511Z,91.20
2023-02-26T10:16:52.361Z,91.40
2023-02-26T10:19:45.631Z,91.40
2023-02-26T10:22:39.313Z,91.30
2023-02-26T10:25:32.879Z,91.10
2023-02-26T10:28:43.837Z,91.50
2023-02-26T10:31:40.124Z,91.20
2023-02-26T10:34:33.275Z,91.20
2023-02-26T10:37:25.668Z,91.20
2023-02-26T10:40:17.968Z,91.20
2023-02-26T10:43:15.200Z,91.20
2023-02-26T10:46:21.680Z,91.20
2023-02-26T10:49:28.293Z,91.30
2023-02-26T10:52:18.825Z,91.10
2023-02-26T10:55:25.691Z,91.10
2023-02-26T10:58:15.724Z,91.20
2023-02-26T11:01:03.911Z,91.20
2023-02-26T11:03:58.025Z,90.90
2023-02-26T11:06:50.357Z,91.40
2023-02-26T11:09:42.447Z,90.80
2023-02-26T11:12:29.875Z,90.80
2023-02-26T11:15:21.132Z,91.30
2023-02-26T11:18:18.708Z,90.90
2023-02-26T11:21:10.296Z,90.70
2023-02-26T11:24:00.979Z,90.40
2023-02-26T11:26:51.598Z,90.30
2023-02-26T11:29:41.277Z,90.40
2023-02-26T11:32:33.913Z,91.30
2023-02-26T11:35:26.822Z,90.80
2023-02-26T11:38:24.591Z,90.30
2023-02-26T11:41:14.131Z,90.10
2023-02-26T11:44:05.038Z,90.00
2023-02-26T11:46:54.873Z,90.00
2023-02-26T11:49:47.600Z,90.10
2023-02-26T11:52:37.117Z,90.00
2023-02-26T11:55:31.427Z,90.00
2023-02-26T11:58:22.558Z,90.20
2023-02-26T12:01:12.447Z,90.40
2023-02-26T12:04:03.972Z,90.70
2023-02-26T12:06:55.136Z,90.90
2023-02-26T12:09:43.219Z,91.30
2023-02-26T12:12:46.637Z,91.30
2023-02-26T12:15:39.393Z,91.20
2023-02-26T12:18:39.684Z,91.20
2023-02-26T12:21:45.414Z,91.40
2023-02-26T12:24:50.687Z,91.50
2023-02-26T12:27:56.571Z,91.40
2023-02-26T12:30:58.547Z,91.40
2023-02-26T12:33:59.011Z,91.00
2023-02-26T12:37:05.148Z,90.70
2023-02-26T12:40:15.169Z,90.30
2023-02-26T12:43:12.228Z,90.00
2023-02-26T12:46:09.155Z,89.70
2023-02-26T12:49:17.646Z,88.90
2023-02-26T12:52:19.624Z,88.20
2023-02-26T12:55:24.596Z,88.30
2023-02-26T12:58:37.153Z,88.50
2023-02-26T13:02:00.422Z,88.80
2023-02-26T13:05:06.384Z,88.40
2023-02-26T13:08:06.323Z,88.30
2023-02-26T13:11:08.169Z,87.30
2023-02-26T13:14:12.726Z,86.40
2023-02-26T13:17:07.841Z,85.70
2023-02-26T13:20:01.556Z,85.40
2023-02-26T13:22:53.628Z,85.40
2023-02-26T13:25:49.272Z,85.80
2023-02-26T13:28:42.658Z,86.10
2023-02-26T13:31:37.835Z,87.30
2023-02-26T13:34:38.769Z,87.90
2023-02-26T13:37:29.894Z,88.90
2023-02-26T13:40:38.397Z,89.10
2023-02-26T13:43:39.448Z,88.80
2023-02-26T13:46:49.183Z,88.90
2023-02-26T13:49:54.963Z,88.30
2023-02-26T13:52:54.151Z,88.50
2023-02-26T13:55:46.146Z,88.80
2023-02-26T13:58:40.390Z,88.50
2023-02-26T14:01:33.448Z,88.50
2023-02-26T14:04:32.124Z,88.70
2023-02-26T14:07:49.905Z,88.80
2023-02-26T14:10:47.280Z,88.50
2023-02-26T14:13:40.480Z,88.40
2023-02-26T14:16:30.754Z,88.10
2023-02-26T14:19:32.931Z,87.80
2023-02-26T14:22:24.183Z,87.90
2023-02-26T14:25:20.611Z,88.40
2023-02-26T14:28:35.714Z,88.30
2023-02-26T14:31:23.678Z,87.50
2023-02-26T14:34:17.447Z,87.10
2023-02-26T14:37:10.094Z,86.40
2023-02-26T14:40:09.346Z,85.70
2023-02-26T14:43:00.197Z,84.40
2023-02-26T14:45:48.782Z,83.60
2023-02-26T14:48:37.589Z,83.00
2023-02-26T14:51:34.059Z,81.70
2023-02-26T14:54:38.442Z,80.90
2023-02-26T14:57:37.846Z,81.60
2023-02-26T15:00:37.787Z,81.50
2023-02-26T15:03:57.612Z,82.00
2023-02-26T15:07:01.020Z,82.60
2023-02-26T15:10:05.641Z,83.10
2023-02-26T15:13:10.138Z,83.00
2023-02-26T15:16:01.941Z,82.60
2023-02-26T15:19:03.300Z,82.70
2023-02-26T15:22:04.606Z,82.60
2023-02-26T15:24:54.172Z,82.20
2023-02-26T15:27:41.909Z,82.50
2023-02-26T15:30:32.226Z,81.90
2023-02-26T15:33:22.471Z,82.20
2023-02-26T15:36:14.947Z,82.20
2023-02-26T15:39:04.603Z,82.10
2023-02-26T15:41:57.803Z,82.10
2023-02-26T15:44:56.725Z,82.70
2023-02-26T15:47:45.014Z,83.50
2023-02-26T15:50:36.766Z,84.00
2023-02-26T15:53:32.515Z,83.60
2023-02-26T15:56:26.706Z,83.40
2023-02-26T15:59:20.224Z,83.70
2023-02-26T16:02:12.092Z,83.70
2023-02-26T16:04:59.828Z,83.60
2023-02-26T16:07:47.826Z,84.00
2023-02-26T16:10:38.728Z,84.10
2023-02-26T16:13:32.137Z,84.50
2023-02-26T16:16:26.683Z,84.40
2023-02-26T16:19:16.725Z,84.50
2023-02-26T16:22:09.209Z,84.60
2023-02-26T16:25:01.568Z,84.70
2023-02-26T16:27:56.650Z,84.80
2023-02-26T16:30:48.755Z,84.90
2023-02-26T16:33:40.038Z,85.10
2023-02-26T16:36:31.214Z,85.10
2023-02-26T16:39:24.706Z,85.30
2023-02-26T16:42:16.783Z,84.60
2023-02-26T16:45:18.261Z,85.80
2023-02-26T16:48:12.523Z,85.00
2023-02-26T16:51:06.208Z,84.90
2023-02-26T16:53:58.398Z,85.20
2023-02-26T16:56:49.200Z,85.60
2023-02-26T16:59:39.855Z,85.80
2023-02-26T17:02:29.859Z,86.00
2023-02-26T17:05:25.219Z,86.20
2023-02-26T17:08:18.068Z,86.30
2023-02-26T17:11:10.487Z,86.40
2023-02-26T17:14:11.242Z,86.60
2023-02-26T17:16:59.170Z,86.70
2023-02-26T17:19:47.769Z,86.90
2023-02-26T17:22:36.382Z,86.80
2023-02-26T17:25:25.868Z,86.90
2023-02-26T17:28:20.756Z,87.10
2023-02-26T17:31:09.276Z,87.20
2023-02-26T17:33:57.389Z,87.30
2023-02-26T17:36:45.349Z,87.60
2023-02-26T17:39:33.641Z,87.50
2023-02-26T17:42:23.394Z,87.40
2023-02-26T17:45:11.763Z,87.50
2023-02-26T17:47:59.709Z,88.50
2023-02-26T17:50:49.841Z,88.10
2023-02-26T17:53:41.173Z,88.20
2023-02-26T17:56:31.072Z,88.60
2023-02-26T17:59:19.975Z,88.90
2023-02-26T18:02:18.562Z,89.20
2023-02-26T18:05:07.014Z,89.50
2023-02-26T18:07:55.542Z,90.00
2023-02-26T18:10:43.241Z,90.10
2023-02-26T18:13:32.460Z,90.20
2023-02-26T18:16:24.330Z,90.20
2023-02-26T18:19:15.877Z,90.30
2023-02-26T18:22:03.584Z,90.40
2023-02-26T18:24:51.247Z,90.40
2023-02-26T18:27:38.856Z,90.40
2023-02-26T18:30:29.765Z,90.50
2023-02-26T18:33:19.424Z,90.60
2023-02-26T18:36:07.983Z,90.50
2023-02-26T18:38:59.546Z,90.60
2023-02-26T18:41:48.128Z,90.60
2023-02-26T18:44:36.136Z,90.60
2023-02-26T18:47:24.304Z,90.50
2023-02-26T18:50:16.853Z,90.50
2023-02-26T18:53:04.442Z,90.50
2023-02-26T18:55:53.744Z,90.50
2023-02-26T18:58:41.334Z,90.60
2023-02-26T19:01:30.640Z,90.50
2023-02-26T19:04:18.231Z,90.60
2023-02-26T19:07:07.848Z,90.60
2023-02-26T19:09:55.559Z,90.60
2023-02-26T19:12:43.181Z,90.60
2023-02-26T19:15:30.829Z,90.60
2023-02-26T19:18:19.142Z,90.70
2023-02-26T19:21:07.422Z,90.80
2023-02-26T19:23:56.774Z,90.80
2023-02-26T19:26:45.621Z,90.80
2023-02-26T19:29:34.579Z,90.80
2023-02-26T19:32:22.828Z,90.90
2023-02-26T19:35:11.046Z,91.00
2023-02-26T19:37:59.200Z,91.00
2023-02-26T19:40:48.655Z,91.40
2023-02-26T19:43:36.460Z,91.00
2023-02-26T19:46:24.723Z,91.10
2023-02-26T19:49:12.593Z,91.20
2023-02-26T19:52:00.237Z,91.20
2023-02-26T19:54:47.709Z,91.20
2023-02-26T19:57:37.010Z,91.30
2023-02-26T20:00:24.503Z,91.40
2023-02-26T20:03:12.483Z,91.40
2023-02-26T20:06:00.874Z,91.50
2023-02-26T20:08:48.868Z,91.60
2023-02-26T20:11:38.339Z,91.70
2023-02-26T20:14:28.389Z,91.70
2023-02-26T20:17:15.567Z,91.70
2023-02-26T20:20:03.431Z,91.80
2023-02-26T20:22:50.850Z,91.80
2023-02-26T20:25:38.947Z,91.80
2023-02-26T20:28:27.571Z,91.80
2023-02-26T20:31:16.829Z,91.80
2023-02-26T20:34:04.629Z,91.90
2023-02-26T20:36:55.808Z,91.90
2023-02-26T20:39:44.403Z,91.90
2023-02-26T20:42:32.088Z,92.00
2023-02-26T20:45:19.619Z,92.00
2023-02-26T20:48:10.480Z,92.00
2023-02-26T20:51:00.820Z,92.10
2023-02-26T20:53:48.914Z,92.10
2023-02-26T20:56:37.046Z,92.10
2023-02-26T20:59:24.951Z,92.10
2023-02-26T21:02:14.028Z,92.50
2023-02-26T21:05:03.077Z,92.10
2023-02-26T21:07:51.528Z,92.20
2023-02-26T21:10:41.433Z,92.20
2023-02-26T21:13:28.915Z,92.10
2023-02-26T21:16:17.053Z,92.10
2023-02-26T21:19:05.019Z,92.10
2023-02-26T21:21:54.078Z,92.10
2023-02-26T21:24:41.484Z,92.20
2023-02-26T21:27:29.156Z,92.20
2023-02-26T21:30:17.720Z,92.20
2023-02-26T21:33:05.763Z,92.20
2023-02-26T21:35:52.961Z,92.20
2023-02-26T21:38:42.595Z,92.20
2023-02-26T21:41:30.016Z,92.20
2023-02-26T21:44:17.391Z,92.20
2023-02-26T21:47:05.398Z,92.20
2023-02-26T21:49:52.359Z,92.20
2023-02-26T21:52:39.799Z,92.20
2023-02-26T21:55:28.389Z,92.20
2023-02-26T21:58:15.374Z,92.20
2023-02-26T22:01:04.009Z,92.30
2023-02-26T22:03:51.795Z,92.20
2023-02-26T22:06:39.619Z,92.70
2023-02-26T22:09:27.538Z,92.30
2023-02-26T22:12:16.485Z,92.30
2023-02-26T22:15:04.061Z,92.40
2023-02-26T22:17:51.598Z,92.30
2023-02-26T22:20:39.615Z,92.30
2023-02-26T22:23:27.958Z,92.30
2023-02-26T22:26:15.686Z,92.20
2023-02-26T22:29:04.369Z,92.20
2023-02-26T22:31:54.467Z,92.20
2023-02-26T22:34:42.182Z,92.20
2023-02-26T22:37:30.274Z,92.20
2023-02-26T22:40:18.205Z,92.20
2023-02-26T22:43:05.985Z,92.30
2023-02-26T22:45:55.112Z,92.20
2023-02-26T22:48:42.981Z,92.20
2023-02-26T22:51:32.552Z,92.20
2023-02-26T22:54:21.217Z,92.20
2023-02-26T22:57:10.080Z,92.20
2023-02-26T22:59:58.304Z,92.20
2023-02-26T23:02:47.870Z,92.20
2023-02-26T23:05:35.775Z,92.20
2023-02-26T23:08:23.885Z,92.20
2023-02-26T23:11:11.517Z,92.20
2023-02-26T23:13:59.260Z,92.20
2023-02-26T23:16:46.933Z,92.20
2023-02-26T23:19:35.928Z,92.20
2023-02-26T23:22:23.486Z,92.30
2023-02-26T23:25:12.245Z,92.30
2023-02-26T23:28:00.171Z,92.30
2023-02-26T23:30:48.034Z,92.20
2023-02-26T23:33:35.827Z,92.10
2023-02-26T23:36:24.849Z,92.10
2023-02-26T23:39:13.765Z,92.10
2023-02-26T23:42:01.614Z,92.00
2023-02-26T23:44:49.572Z,92.00
2023-02-26T23:47:37.295Z,92.00
2023-02-26T23:50:24.656Z,91.90
2023-02-26T23:53:14.175Z,91.90
2023-02-26T23:56:01.712Z,91.90
2023-02-26T23:58:49.493Z,91.90
